CheckWX is a tool to help pilots better visualize weather data.  It is not intended as a substitute for an official pre-flight weather briefing.

08:12:44 UTC

KIZG METAR
Eastern Slopes Regional Airport
Fryeburg, Maine, USA
Current

19 mins ago

KIZG 260754Z AUTO 18004KT 10SM -RA OVC033 12/11 A2984 RMK AO2 RAE04B22 SLP105 P0001 T01170111
Observed
May-26 @ 07:54 UTC
Wind
  • 180° at 4 KTS
Visibility
10 SM
Flight Rules
VFR
Conditions
Light Rain
Cloud Levels
  • Overcast at 3,300' AGL
Temperature
12°C / 54°F
Dewpoint
11°C / 52°F
Humidity
94%
Altimeter
29.84" Hg
Pressure
1010.52 hPa
Current Rain
0.01"
Previous

1 hour ago

KIZG 260654Z AUTO 18004KT 10SM -RA BKN110 12/11 A2986 RMK AO2 SLP112 P0003 T01170111
Observed
May-26 @ 06:54 UTC
Wind
  • 180° at 4 KTS
Visibility
10 SM
Flight Rules
VFR
Conditions
Light Rain
Cloud Levels
  • Broken at 11,000' AGL
Temperature
12°C / 54°F
Dewpoint
11°C / 52°F
Humidity
94%
Altimeter
29.86" Hg
Pressure
1011.22 hPa
Current Rain
0.03"
Previous

2 hours ago

KIZG 260554Z AUTO 00000KT 8SM -RA FEW055 OVC100 12/11 A2991 RMK AO2 PRESFR SLP127 P0007 60035 T01170111 10183 20111 58019
Observed
May-26 @ 05:54 UTC
Visibility
8 SM
Flight Rules
VFR
Conditions
Light Rain
Cloud Levels
  • Few at 5,500' AGL
  • Overcast at 10,000' AGL
Temperature
12°C / 54°F
Dewpoint
11°C / 52°F
Humidity
94%
Altimeter
29.91" Hg
Pressure
1012.92 hPa
Current Rain
0.07"